Time;durP1;ratioP1;P1;durP2;ratioP2;P2;SDS_P1;SDS_P2;PMS_P1;PMS_P2;Temp;Humidity;BMP_temperature;BMP_pressure;BME280_temperature;BME280_humidity;BME280_pressure;Samples;Min_cycle;Max_cycle;Signal;HPM_P1;HPM_P2
2023/08/04 00:00:11;;;;;;;3.58;0.90;;;16.80;99.90;;;;;;5094050;28;20044;-48
2023/08/04 00:02:37;;;;;;;2.65;0.82;;;16.70;99.90;;;;;;5093544;28;20067;-47
2023/08/04 00:05:03;;;;;;;;;;;16.80;99.90;;;;;;5094354;28;20056;-48
2023/08/04 00:07:29;;;;;;;4.78;1.15;;;16.70;99.90;;;;;;5093641;28;20367;-47
2023/08/04 00:09:55;;;;;;;2.13;0.98;;;16.70;99.90;;;;;;5093823;28;20131;-47
2023/08/04 00:12:20;;;;;;;2.97;0.80;;;16.70;99.90;;;;;;5093854;28;20505;-47
2023/08/04 00:14:47;;;;;;;2.22;0.90;;;16.70;99.90;;;;;;5093838;28;20483;-47
2023/08/04 00:17:13;;;;;;;3.05;0.80;;;16.70;99.90;;;;;;5093757;28;20047;-47
2023/08/04 00:19:39;;;;;;;2.90;0.80;;;16.70;99.90;;;;;;5093691;28;20109;-46
2023/08/04 00:22:05;;;;;;;4.05;0.88;;;16.70;99.90;;;;;;5092874;28;20117;-46
2023/08/04 00:24:31;;;;;;;5.65;0.80;;;16.70;99.90;;;;;;5093670;28;20044;-47
2023/08/04 00:26:56;;;;;;;5.43;0.90;;;16.70;99.90;;;;;;5093779;28;20100;-47
2023/08/04 00:29:22;;;;;;;2.50;0.80;;;16.70;99.90;;;;;;5093704;28;20094;-47
2023/08/04 00:31:48;;;;;;;3.33;0.80;;;16.70;99.90;;;;;;5092453;28;20051;-47
2023/08/04 00:34:13;;;;;;;2.10;0.60;;;16.60;99.90;;;;;;5096327;28;20040;-47
2023/08/04 00:36:39;;;;;;;4.18;0.90;;;16.70;99.90;;;;;;5096579;28;20040;-47
2023/08/04 00:39:05;;;;;;;2.92;0.70;;;16.70;99.90;;;;;;5097678;28;20044;-48
2023/08/04 00:41:30;;;;;;;4.85;0.95;;;16.60;99.90;;;;;;5098015;28;20048;-47
2023/08/04 00:43:56;;;;;;;2.53;0.63;;;16.60;99.90;;;;;;5098121;28;20047;-47
2023/08/04 00:46:23;;;;;;;1.30;0.55;;;16.60;99.90;;;;;;5080272;28;20520;-47
2023/08/04 00:48:48;;;;;;;1.63;0.70;;;16.60;99.90;;;;;;5097851;28;20052;-47
2023/08/04 00:51:14;;;;;;;2.58;0.65;;;16.60;99.90;;;;;;5097674;28;20127;-47
2023/08/04 00:53:41;;;;;;;4.82;0.75;;;16.60;99.90;;;;;;5097216;28;20062;-48
2023/08/04 00:56:07;;;;;;;5.32;0.77;;;16.60;99.90;;;;;;5096328;28;20516;-47
2023/08/04 00:58:33;;;;;;;2.05;0.70;;;16.60;99.90;;;;;;5097814;28;20052;-47
2023/08/04 01:01:00;;;;;;;1.65;0.60;;;16.60;99.90;;;;;;5096332;28;20087;-47
2023/08/04 01:03:26;;;;;;;2.40;0.55;;;16.60;99.90;;;;;;5097302;28;20047;-47
2023/08/04 01:06:34;;;;;;;2.22;0.50;;;16.60;99.90;;;;;;5096150;28;20036;-47
2023/08/04 01:09:14;;;;;;;2.58;0.60;;;16.60;99.90;;;;;;5097065;28;20117;-47
2023/08/04 01:11:51;;;;;;;2.72;0.68;;;16.60;99.90;;;;;;5096312;28;20058;-48
2023/08/04 01:14:18;;;;;;;3.03;0.60;;;16.50;99.90;;;;;;5097181;28;20044;-47
2023/08/04 01:16:44;;;;;;;2.47;0.82;;;16.50;99.90;;;;;;5096935;28;20040;-48
2023/08/04 01:19:10;;;;;;;1.67;0.63;;;16.50;99.90;;;;;;5097619;28;20105;-47
2023/08/04 01:21:42;;;;;;;1.70;0.50;;;16.50;99.90;;;;;;5097218;28;20048;-48
2023/08/04 01:24:09;;;;;;;1.95;0.50;;;16.50;99.90;;;;;;5097092;28;20044;-48
2023/08/04 01:26:37;;;;;;;1.83;0.70;;;16.50;99.90;;;;;;5097025;28;20101;-48
2023/08/04 01:29:05;;;;;;;3.30;0.88;;;16.50;99.90;;;;;;5096634;28;20052;-47
2023/08/04 01:31:31;;;;;;;3.58;0.70;;;16.50;99.90;;;;;;5097153;28;20047;-48
2023/08/04 01:33:57;;;;;;;1.70;0.70;;;16.40;99.90;;;;;;5096542;28;20513;-48
2023/08/04 01:36:23;;;;;;;2.42;0.70;;;16.40;99.90;;;;;;5096753;28;20048;-48
2023/08/04 01:38:48;;;;;;;2.70;0.63;;;16.50;99.90;;;;;;5096731;28;20129;-48
2023/08/04 01:41:14;;;;;;;4.93;1.17;;;16.40;99.90;;;;;;5096657;28;20046;-48
2023/08/04 01:43:39;;;;;;;1.25;0.55;;;16.40;99.90;;;;;;5095845;28;20040;-47
2023/08/04 01:46:05;;;;;;;4.38;0.70;;;16.40;99.90;;;;;;5095798;28;20048;-48
2023/08/04 01:48:31;;;;;;;4.13;0.70;;;16.40;99.90;;;;;;5078547;28;20040;-49
2023/08/04 01:50:56;;;;;;;2.85;0.75;;;16.40;99.90;;;;;;5095314;28;20048;-47
2023/08/04 01:53:22;;;;;;;2.63;0.67;;;16.40;99.90;;;;;;5096272;28;20036;-48
2023/08/04 01:55:48;;;;;;;2.65;0.70;;;16.50;99.90;;;;;;5096575;28;20285;-47
2023/08/04 01:58:13;;;;;;;1.42;0.80;;;16.40;99.90;;;;;;5096050;28;20073;-47
2023/08/04 02:00:39;;;;;;;1.77;0.47;;;16.40;99.90;;;;;;5096514;28;20062;-47
2023/08/04 02:03:05;;;;;;;3.53;0.82;;;16.40;99.90;;;;;;5096226;28;20102;-48
2023/08/04 02:05:31;;;;;;;3.07;0.77;;;16.40;99.90;;;;;;5096215;28;20070;-50
2023/08/04 02:07:57;;;;;;;;;;;16.40;99.90;;;;;;5079085;28;20365;-49
2023/08/04 02:10:22;;;;;;;3.75;0.75;;;16.40;99.90;;;;;;5095991;28;20015;-48
2023/08/04 02:12:48;;;;;;;3.42;1.00;;;16.40;99.90;;;;;;5095873;28;20044;-49
2023/08/04 02:15:14;;;;;;;3.78;1.00;;;16.40;99.90;;;;;;5095825;28;20047;-48
2023/08/04 02:17:39;;;;;;;2.50;0.80;;;16.40;99.90;;;;;;5095961;28;20126;-48
2023/08/04 02:20:05;;;;;;;3.50;0.80;;;16.40;99.90;;;;;;5094649;28;20059;-47
2023/08/04 02:22:31;;;;;;;3.80;0.88;;;16.40;99.90;;;;;;5096209;28;20044;-48
2023/08/04 02:24:57;;;;;;;2.90;0.80;;;16.40;99.90;;;;;;5095828;28;20051;-48
2023/08/04 02:27:22;;;;;;;1.38;0.57;;;16.40;99.90;;;;;;5095703;28;20429;-49
2023/08/04 02:29:48;;;;;;;1.50;0.70;;;16.40;99.90;;;;;;5095446;28;20399;-48
2023/08/04 02:32:14;;;;;;;2.25;0.60;;;16.40;99.90;;;;;;5096018;28;20124;-48
2023/08/04 02:34:39;;;;;;;3.80;1.10;;;16.40;99.90;;;;;;5095718;28;20507;-47
2023/08/04 02:37:05;;;;;;;4.28;0.90;;;16.30;99.90;;;;;;5095772;28;20040;-47
2023/08/04 02:39:34;;;;;;;2.50;0.60;;;16.30;99.90;;;;;;5095458;28;20051;-47
2023/08/04 02:42:00;;;;;;;3.15;0.90;;;16.30;99.90;;;;;;5095290;28;20127;-46
2023/08/04 02:44:26;;;;;;;3.47;0.43;;;16.30;99.90;;;;;;5095193;28;20091;-47
2023/08/04 02:46:51;;;;;;;2.97;0.73;;;16.30;99.90;;;;;;5094475;28;20394;-47
2023/08/04 02:49:17;;;;;;;1.90;0.73;;;16.30;99.90;;;;;;5095396;28;20043;-48
2023/08/04 02:51:42;;;;;;;5.22;1.50;;;16.30;99.90;;;;;;5095506;28;20044;-47
2023/08/04 02:54:10;;;;;;;3.33;0.77;;;16.30;99.90;;;;;;5095364;28;20063;-47
2023/08/04 02:56:36;;;;;;;1.08;0.50;;;16.20;99.90;;;;;;5094914;28;20286;-47
2023/08/04 02:59:01;;;;;;;1.48;0.50;;;16.30;99.90;;;;;;5094950;28;20445;-47
2023/08/04 03:01:27;;;;;;;1.75;0.52;;;16.20;99.90;;;;;;5095195;28;20399;-49
2023/08/04 03:03:52;;;;;;;2.65;0.70;;;16.30;99.90;;;;;;5095037;28;20146;-48
2023/08/04 03:06:18;;;;;;;1.67;0.60;;;16.20;99.90;;;;;;5095306;28;20360;-47
2023/08/04 03:08:44;;;;;;;1.92;0.50;;;16.20;99.90;;;;;;5094840;28;20379;-48
2023/08/04 03:11:10;;;;;;;1.50;0.65;;;16.20;99.90;;;;;;5093906;28;20414;-47
2023/08/04 03:13:37;;;;;;;2.35;0.60;;;16.20;99.90;;;;;;5094732;28;20091;-49
2023/08/04 03:16:03;;;;;;;3.67;0.70;;;16.20;99.90;;;;;;5094983;28;20040;-48
2023/08/04 03:18:29;;;;;;;3.80;0.95;;;16.20;99.90;;;;;;5094848;28;20044;-47
2023/08/04 03:20:55;;;;;;;5.60;1.35;;;16.20;99.90;;;;;;5094750;28;20144;-48
2023/08/04 03:23:21;;;;;;;1.45;0.55;;;16.20;99.90;;;;;;5094867;28;20475;-48
2023/08/04 03:25:48;;;;;;;1.77;0.75;;;16.20;99.90;;;;;;5094617;28;20040;-47
2023/08/04 03:28:14;;;;;;;2.50;0.95;;;16.20;99.90;;;;;;5094390;28;20879;-49
2023/08/04 03:30:40;;;;;;;4.53;0.85;;;16.20;99.90;;;;;;5093554;28;20048;-48
2023/08/04 03:33:05;;;;;;;1.90;0.65;;;16.20;99.90;;;;;;5094492;28;20126;-48
2023/08/04 03:35:31;;;;;;;3.92;0.70;;;16.20;99.90;;;;;;5094419;28;20052;-48
2023/08/04 03:37:57;;;;;;;2.45;0.60;;;16.10;99.90;;;;;;5093392;28;20067;-51
2023/08/04 03:40:22;;;;;;;1.27;0.50;;;16.10;99.90;;;;;;5094455;28;20116;-48
2023/08/04 03:42:48;;;;;;;1.88;0.70;;;16.10;99.90;;;;;;5094211;28;20055;-48
2023/08/04 03:45:14;;;;;;;3.72;1.27;;;16.10;99.90;;;;;;5094628;28;20075;-48
2023/08/04 03:47:39;;;;;;;3.22;0.73;;;16.10;99.90;;;;;;5094443;28;20487;-47
2023/08/04 03:50:06;;;;;;;2.40;0.70;;;16.10;99.90;;;;;;5093177;28;20051;-52
2023/08/04 03:52:32;;;;;;;2.78;0.88;;;16.10;99.90;;;;;;5093142;28;20044;-48
2023/08/04 03:54:58;;;;;;;2.92;0.70;;;16.00;99.90;;;;;;5094059;28;20126;-48
2023/08/04 03:57:24;;;;;;;2.95;0.85;;;16.00;99.90;;;;;;5093962;28;20464;-47
2023/08/04 03:59:52;;;;;;;1.40;0.68;;;16.00;99.90;;;;;;5093956;28;20564;-48
2023/08/04 04:02:18;;;;;;;3.97;0.95;;;15.90;99.90;;;;;;5093837;28;20536;-49
2023/08/04 04:04:44;;;;;;;2.63;0.88;;;15.90;99.90;;;;;;5094074;28;20044;-53
2023/08/04 04:07:10;;;;;;;2.50;0.60;;;15.90;99.90;;;;;;5093455;28;20078;-48
2023/08/04 04:09:35;;;;;;;1.98;0.60;;;15.80;99.90;;;;;;5092779;28;20044;-47
2023/08/04 04:12:01;;;;;;;2.83;0.68;;;15.80;99.90;;;;;;5093887;28;20044;-47
2023/08/04 04:14:27;;;;;;;1.75;0.68;;;15.80;99.90;;;;;;5093035;28;20052;-49
2023/08/04 04:16:52;;;;;;;1.70;0.50;;;15.80;99.90;;;;;;5092986;28;20046;-47
2023/08/04 04:19:18;;;;;;;1.60;0.70;;;15.70;99.90;;;;;;5093816;28;20126;-48
2023/08/04 04:21:43;;;;;;;0.95;0.50;;;15.70;99.90;;;;;;5093554;28;20139;-47
2023/08/04 04:24:09;;;;;;;1.75;0.50;;;15.70;99.90;;;;;;5093636;28;20087;-49
2023/08/04 04:26:35;;;;;;;2.92;0.60;;;15.60;99.90;;;;;;5093545;28;20044;-47
2023/08/04 04:29:00;;;;;;;1.50;0.77;;;15.60;99.90;;;;;;5092733;28;20502;-48
2023/08/04 04:31:26;;;;;;;1.25;0.50;;;15.70;99.90;;;;;;5093749;28;20047;-47
2023/08/04 04:33:52;;;;;;;1.83;0.70;;;15.70;99.90;;;;;;5093506;28;20047;-48
2023/08/04 04:36:17;;;;;;;3.43;0.70;;;15.60;99.90;;;;;;5092775;28;20286;-48
2023/08/04 04:38:43;;;;;;;1.77;0.60;;;15.70;99.90;;;;;;5093654;28;20416;-47
2023/08/04 04:41:09;;;;;;;1.85;0.68;;;15.70;99.90;;;;;;5093571;28;20082;-48
2023/08/04 04:43:36;;;;;;;1.77;0.70;;;15.70;99.90;;;;;;5093649;28;20047;-48
2023/08/04 04:46:03;;;;;;;2.15;0.70;;;15.70;99.90;;;;;;5093601;28;20563;-48
2023/08/04 04:48:29;;;;;;;3.45;0.75;;;15.80;99.90;;;;;;5093437;28;20051;-48
2023/08/04 04:50:55;;;;;;;2.03;0.68;;;15.80;99.90;;;;;;5092552;28;20146;-48
2023/08/04 04:53:20;;;;;;;2.40;0.60;;;15.80;99.90;;;;;;5093634;28;20123;-48
2023/08/04 04:55:46;;;;;;;2.65;0.80;;;15.80;99.90;;;;;;5093293;28;20048;-48
2023/08/04 04:58:12;;;;;;;1.20;0.50;;;15.80;99.90;;;;;;5093482;28;20082;-48
2023/08/04 05:00:38;;;;;;;2.72;0.70;;;15.80;99.90;;;;;;5093487;28;20048;-48
2023/08/04 05:03:06;;;;;;;3.03;0.70;;;15.80;99.90;;;;;;5093884;28;20471;-49
2023/08/04 05:05:35;;;;;;;3.35;0.80;;;15.90;99.90;;;;;;5093390;28;20051;-48
2023/08/04 05:08:01;;;;;;;1.38;0.60;;;15.90;99.90;;;;;;5093220;28;20044;-48
2023/08/04 05:10:27;;;;;;;2.08;0.77;;;15.90;99.90;;;;;;5093323;28;20052;-47
2023/08/04 05:12:52;;;;;;;2.08;0.70;;;15.90;99.90;;;;;;5093267;28;20075;-48
2023/08/04 05:15:18;;;;;;;1.40;0.60;;;15.90;99.90;;;;;;5093558;28;20401;-48
2023/08/04 05:17:47;;;;;;;1.70;0.70;;;15.90;99.90;;;;;;5093269;28;20048;-47
2023/08/04 05:20:13;;;;;;;2.03;0.80;;;15.90;99.90;;;;;;5096324;28;20089;-48
2023/08/04 05:22:43;;;;;;;1.50;0.68;;;15.90;99.90;;;;;;5096907;28;20056;-47
2023/08/04 05:25:09;;;;;;;1.48;0.70;;;16.00;99.90;;;;;;5097080;28;20521;-48
2023/08/04 05:27:35;;;;;;;1.92;0.80;;;16.00;99.90;;;;;;5096969;28;20043;-47
2023/08/04 05:30:01;;;;;;;2.58;0.85;;;16.00;99.90;;;;;;5095857;28;20100;-48
2023/08/04 05:32:27;;;;;;;2.72;0.90;;;16.00;99.90;;;;;;5097006;28;20055;-47
2023/08/04 05:34:52;;;;;;;3.13;1.13;;;16.10;99.90;;;;;;5095711;28;20143;-48
2023/08/04 05:37:18;;;;;;;2.53;1.00;;;16.10;99.90;;;;;;5096615;28;20150;-47
2023/08/04 05:39:44;;;;;;;4.20;1.05;;;16.10;99.90;;;;;;5096674;28;20047;-48
2023/08/04 05:42:09;;;;;;;4.32;1.00;;;16.10;99.90;;;;;;5095875;28;20044;-48
2023/08/04 05:44:35;;;;;;;3.00;0.73;;;16.10;99.90;;;;;;5096443;28;20048;-47
2023/08/04 05:47:01;;;;;;;2.47;0.80;;;16.10;99.90;;;;;;5096787;28;20051;-47
2023/08/04 05:49:26;;;;;;;3.38;0.98;;;16.10;99.90;;;;;;5096530;28;20431;-50
2023/08/04 05:51:52;;;;;;;2.40;0.88;;;16.20;99.90;;;;;;5096472;28;20131;-48
2023/08/04 05:54:18;;;;;;;3.30;0.80;;;16.20;99.90;;;;;;5095687;28;20056;-48
2023/08/04 05:56:43;;;;;;;3.15;0.80;;;16.20;99.90;;;;;;5096398;28;20083;-47
2023/08/04 05:59:09;;;;;;;3.15;0.98;;;16.20;99.90;;;;;;5096332;28;20044;-47
2023/08/04 06:01:35;;;;;;;2.60;0.90;;;16.20;99.90;;;;;;5096336;28;20131;-48
2023/08/04 06:04:00;;;;;;;3.05;0.90;;;16.20;99.90;;;;;;5095285;28;20044;-47
2023/08/04 06:06:27;;;;;;;4.38;0.80;;;16.30;99.90;;;;;;5096040;28;20473;-48
2023/08/04 06:08:52;;;;;;;3.20;0.70;;;16.30;99.90;;;;;;5095993;28;20048;-47
2023/08/04 06:11:18;;;;;;;2.47;0.80;;;16.30;99.90;;;;;;5096110;28;20135;-47
2023/08/04 06:13:44;;;;;;;3.67;0.90;;;16.30;99.90;;;;;;5096267;28;20437;-47
2023/08/04 06:16:10;;;;;;;3.08;0.90;;;16.30;99.90;;;;;;5096065;28;20077;-48
2023/08/04 06:18:35;;;;;;;4.40;0.93;;;16.30;99.90;;;;;;5095958;28;20400;-47
2023/08/04 06:21:01;;;;;;;2.92;0.90;;;16.30;99.90;;;;;;5095636;28;20056;-48
2023/08/04 06:23:28;;;;;;;3.08;0.90;;;16.30;99.90;;;;;;5095641;28;20055;-48
2023/08/04 06:25:53;;;;;;;3.50;0.90;;;16.40;99.90;;;;;;5096025;28;20048;-47
2023/08/04 06:28:19;;;;;;;2.15;0.80;;;16.40;99.90;;;;;;5096064;28;20399;-47
2023/08/04 06:30:45;;;;;;;2.78;1.08;;;16.40;99.90;;;;;;5094443;28;20040;-47
2023/08/04 06:33:11;;;;;;;3.00;0.93;;;16.40;99.90;;;;;;5095644;28;20044;-47
2023/08/04 06:35:41;;;;;;;2.55;0.80;;;16.40;99.90;;;;;;5095439;28;20047;-46
2023/08/04 06:38:07;;;;;;;3.22;1.00;;;16.50;99.90;;;;;;5094479;28;20127;-47
2023/08/04 06:40:33;;;;;;;;;;;16.50;99.90;;;;;;5096011;28;20188;-47
2023/08/04 06:42:59;;;;;;;2.58;0.68;;;16.50;99.90;;;;;;5094585;28;19920;-47
2023/08/04 06:45:27;;;;;;;1.63;0.70;;;16.50;99.90;;;;;;5095401;28;20051;-47
2023/08/04 06:47:53;;;;;;;2.15;0.75;;;16.50;99.90;;;;;;5095495;28;20056;-47
2023/08/04 06:50:19;;;;;;;2.97;0.80;;;16.60;99.90;;;;;;5093988;28;20050;-47
2023/08/04 06:52:44;;;;;;;4.30;0.98;;;16.60;99.90;;;;;;5095090;28;20076;-48
2023/08/04 06:55:10;;;;;;;3.45;1.02;;;16.60;99.90;;;;;;5095254;28;20047;-46
2023/08/04 06:57:36;;;;;;;4.40;1.30;;;16.50;99.90;;;;;;5094150;28;20048;-46
2023/08/04 07:00:03;;;;;;;1.80;0.70;;;16.60;99.90;;;;;;5095183;28;20040;-47
2023/08/04 07:02:28;;;;;;;2.17;0.85;;;16.60;99.90;;;;;;5095055;28;20044;-47
2023/08/04 07:04:54;;;;;;;4.15;0.90;;;16.60;99.90;;;;;;5093649;28;20047;-46
2023/08/04 07:07:19;;;;;;;2.45;0.80;;;16.70;99.90;;;;;;5094877;28;20052;-46
2023/08/04 07:09:45;;;;;;;3.05;1.05;;;16.70;99.90;;;;;;5095104;28;20063;-47
2023/08/04 07:12:11;;;;;;;2.88;1.00;;;16.70;99.90;;;;;;5095005;28;20051;-48
2023/08/04 07:14:36;;;;;;;2.80;0.90;;;16.70;99.90;;;;;;5094993;28;20058;-47
2023/08/04 07:17:02;;;;;;;3.45;1.00;;;16.80;99.90;;;;;;5094674;28;20391;-48
2023/08/04 07:19:28;;;;;;;2.22;0.73;;;16.80;99.90;;;;;;5094667;28;20113;-48
2023/08/04 07:21:53;;;;;;;3.38;1.00;;;16.80;99.90;;;;;;5094889;28;20063;-47
2023/08/04 07:24:19;;;;;;;2.72;1.00;;;16.90;99.90;;;;;;5094737;28;20051;-46
2023/08/04 07:26:45;;;;;;;1.98;0.82;;;16.90;99.90;;;;;;5094498;28;20050;-47
2023/08/04 07:29:10;;;;;;;2.53;1.00;;;16.90;99.90;;;;;;5093464;28;20131;-47
2023/08/04 07:31:36;;;;;;;2.08;0.93;;;16.90;99.90;;;;;;5094604;28;20383;-46
2023/08/04 07:34:02;;;;;;;4.30;1.45;;;16.90;99.90;;;;;;5094250;28;20395;-46
2023/08/04 07:36:27;;;;;;;2.15;0.82;;;17.00;99.90;;;;;;5094397;28;20210;-48
2023/08/04 07:38:53;;;;;;;4.57;1.10;;;17.00;99.90;;;;;;5094470;28;20048;-46
2023/08/04 07:41:20;;;;;;;5.30;0.98;;;17.00;99.90;;;;;;5094293;28;20089;-49
2023/08/04 07:43:46;;;;;;;3.90;1.00;;;17.00;99.90;;;;;;5093598;28;20052;-46
2023/08/04 07:46:38;;;;;;;2.20;0.90;;;17.00;99.90;;;;;;5094352;28;20518;-47
2023/08/04 07:49:03;;;;;;;2.55;0.80;;;17.00;99.90;;;;;;5091400;28;20056;-46
2023/08/04 07:51:29;;;;;;;1.73;0.68;;;17.00;99.90;;;;;;5092971;28;20384;-46
2023/08/04 07:53:55;;;;;;;3.38;1.20;;;17.00;99.90;;;;;;5094039;28;20036;-47
2023/08/04 07:56:20;;;;;;;1.98;0.77;;;16.90;99.90;;;;;;5094196;28;20036;-46
2023/08/04 07:58:49;;;;;;;1.75;0.80;;;16.90;99.90;;;;;;5093034;28;20047;-46
2023/08/04 08:01:15;;;;;;;2.20;0.80;;;16.90;99.90;;;;;;5092931;28;20074;-46
2023/08/04 08:03:41;;;;;;;2.47;0.68;;;16.90;99.90;;;;;;5092837;28;20058;-46
2023/08/04 08:06:07;;;;;;;;;;;16.90;99.90;;;;;;5094486;28;20040;-46
2023/08/04 08:08:32;;;;;;;1.67;0.60;;;16.90;99.90;;;;;;5094008;28;20544;-46
2023/08/04 08:10:59;;;;;;;1.10;0.55;;;16.90;99.90;;;;;;5093017;28;20105;-46
2023/08/04 08:13:24;;;;;;;;;;;16.80;99.90;;;;;;5094292;28;20040;-47
2023/08/04 08:15:50;;;;;;;2.58;0.50;;;16.80;99.90;;;;;;5093846;28;19920;-46
2023/08/04 08:18:16;;;;;;;1.88;0.70;;;16.80;99.90;;;;;;5093503;28;20051;-46
2023/08/04 08:20:43;;;;;;;1.95;0.70;;;16.80;99.90;;;;;;5093587;28;20063;-47
2023/08/04 08:23:09;;;;;;;1.92;0.90;;;16.90;99.90;;;;;;5093795;28;20148;-46
2023/08/04 08:25:35;;;;;;;;;;;16.90;99.90;;;;;;5094071;28;20043;-46
2023/08/04 08:28:02;;;;;;;1.83;0.80;;;16.90;99.90;;;;;;5093960;28;19964;-47
2023/08/04 08:30:27;;;;;;;;;;;17.00;99.90;;;;;;5094148;28;20173;-47
2023/08/04 08:32:53;;;;;;;2.80;1.15;;;17.00;99.90;;;;;;5093377;28;20011;-46
2023/08/04 08:35:19;;;;;;;4.50;0.95;;;17.00;99.90;;;;;;5092493;28;20542;-46
2023/08/04 08:37:44;;;;;;;3.97;1.10;;;17.10;99.90;;;;;;5093669;28;20048;-47
2023/08/04 08:40:11;;;;;;;2.63;0.80;;;17.10;99.90;;;;;;5093703;28;20051;-47
2023/08/04 08:42:36;;;;;;;4.38;0.93;;;17.10;99.90;;;;;;5092636;28;20051;-48
2023/08/04 08:45:02;;;;;;;4.00;1.00;;;17.10;99.90;;;;;;5093502;28;20052;-49
2023/08/04 08:47:38;;;;;;;3.15;0.82;;;17.20;99.90;;;;;;5093489;28;20178;-49
2023/08/04 08:50:06;;;;;;;2.05;0.88;;;17.30;99.90;;;;;;5093756;28;20131;-51
2023/08/04 08:52:36;;;;;;;4.15;1.25;;;17.20;99.90;;;;;;5093331;28;20113;-49
2023/08/04 08:55:04;;;;;;;2.67;0.77;;;17.10;99.90;;;;;;5095932;28;20182;-51
2023/08/04 08:57:30;;;;;;;2.13;0.75;;;17.20;99.90;;;;;;5097316;28;20556;-52
2023/08/04 08:59:58;;;;;;;2.65;0.82;;;17.20;99.90;;;;;;5097246;28;20051;-50
2023/08/04 09:02:24;;;;;;;6.35;1.05;;;17.30;99.90;;;;;;5097596;28;20047;-52
2023/08/04 09:04:49;;;;;;;2.95;0.70;;;17.30;99.90;;;;;;5097439;28;20040;-49
2023/08/04 09:07:15;;;;;;;1.27;0.60;;;17.40;99.90;;;;;;5097255;28;20105;-47
2023/08/04 09:09:40;;;;;;;2.42;0.80;;;17.40;99.90;;;;;;5095759;28;20067;-52
2023/08/04 09:12:07;;;;;;;2.00;0.60;;;17.40;99.90;;;;;;5096989;28;20039;-47
2023/08/04 09:14:55;;;;;;;1.75;0.95;;;17.50;99.90;;;;;;5097042;28;20529;-48
2023/08/04 09:17:40;;;;;;;1.85;0.52;;;17.50;99.90;;;;;;5097569;28;20105;-48
2023/08/04 09:20:10;;;;;;;2.58;0.60;;;17.60;99.90;;;;;;5096922;28;20101;-52
2023/08/04 09:22:43;;;;;;;2.28;0.50;;;17.70;99.90;;;;;;5097049;28;20044;-48
2023/08/04 09:25:09;;;;;;;2.85;0.70;;;17.80;99.90;;;;;;5097031;28;20395;-47
2023/08/04 09:27:41;;;;;;;2.45;0.60;;;17.90;99.90;;;;;;5095996;28;20471;-53
2023/08/04 09:30:09;;;;;;;2.05;0.50;;;18.00;99.90;;;;;;5095403;28;20048;-47
2023/08/04 09:32:45;;;;;;;2.03;0.77;;;18.00;99.90;;;;;;5096822;28;20044;-47
2023/08/04 09:35:11;;;;;;;3.33;0.50;;;18.00;99.90;;;;;;5096618;28;20051;-47
2023/08/04 09:37:38;;;;;;;4.30;0.65;;;18.00;99.90;;;;;;5095612;28;20432;-48
2023/08/04 09:40:20;;;;;;;3.70;0.70;;;18.00;99.90;;;;;;5096749;28;20048;-49
2023/08/04 09:42:47;;;;;;;5.10;0.90;;;18.00;99.90;;;;;;5096741;28;20044;-48
2023/08/04 09:45:17;;;;;;;2.45;0.60;;;17.90;99.90;;;;;;5095650;28;20047;-53
2023/08/04 09:47:51;;;;;;;3.13;0.90;;;18.00;99.90;;;;;;5096461;28;20052;-49
2023/08/04 09:50:18;;;;;;;1.90;0.52;;;18.00;99.90;;;;;;5096629;28;20052;-52
2023/08/04 09:52:44;;;;;;;1.65;0.57;;;18.00;99.90;;;;;;5096414;28;20417;-50
2023/08/04 09:55:10;;;;;;;3.53;0.70;;;18.00;99.90;;;;;;5095347;28;20048;-49
2023/08/04 09:57:37;;;;;;;1.15;0.50;;;18.00;99.90;;;;;;5096383;28;20525;-48
2023/08/04 10:00:08;;;;;;;4.50;0.60;;;18.10;99.90;;;;;;5096286;28;20512;-49
2023/08/04 10:02:34;;;;;;;1.95;0.65;;;18.10;99.90;;;;;;5096269;28;20380;-48
2023/08/04 10:05:01;;;;;;;2.45;0.75;;;18.20;99.90;;;;;;5095379;28;20051;-49
2023/08/04 10:07:29;;;;;;;3.08;0.70;;;18.30;99.90;;;;;;5095099;28;20533;-47
2023/08/04 10:09:54;;;;;;;1.33;0.50;;;18.30;99.90;;;;;;5095870;28;20081;-50
2023/08/04 10:12:22;;;;;;;2.10;0.40;;;18.30;99.90;;;;;;5095964;28;20044;-46
2023/08/04 10:14:48;;;;;;;4.30;0.50;;;18.30;99.90;;;;;;5095998;28;20131;-50
2023/08/04 10:17:13;;;;;;;2.63;0.57;;;18.40;99.90;;;;;;5095962;28;20114;-49
2023/08/04 10:19:39;;;;;;;5.22;0.55;;;18.40;99.90;;;;;;5095285;28;20087;-52
2023/08/04 10:22:10;;;;;;;1.30;0.40;;;18.50;99.90;;;;;;5095645;28;20056;-48
2023/08/04 10:24:40;;;;;;;3.10;0.50;;;18.70;99.90;;;;;;5095996;28;20051;-52
2023/08/04 10:27:19;;;;;;;3.40;0.82;;;18.80;99.90;;;;;;5095639;28;20108;-51
2023/08/04 10:29:45;;;;;;;1.67;0.50;;;18.80;99.90;;;;;;5094827;28;20079;-48
2023/08/04 10:32:10;;;;;;;0.70;0.38;;;18.80;99.90;;;;;;5095640;28;20399;-46
2023/08/04 10:34:43;;;;;;;2.72;0.50;;;18.70;99.90;;;;;;5095602;28;20044;-48
2023/08/04 10:37:14;;;;;;;2.17;0.50;;;18.70;99.90;;;;;;5095674;28;20051;-48
2023/08/04 10:39:56;;;;;;;3.95;0.60;;;18.80;99.90;;;;;;5095541;28;20048;-48
2023/08/04 10:42:24;;;;;;;0.70;0.40;;;18.90;99.90;;;;;;5095589;28;20051;-47
2023/08/04 10:44:55;;;;;;;2.03;0.60;;;18.90;99.90;;;;;;5094507;28;20040;-48
2023/08/04 10:47:51;;;;;;;1.02;0.40;;;19.00;99.90;;;;;;5095355;28;20127;-48
2023/08/04 10:50:17;;;;;;;1.38;0.43;;;19.00;99.90;;;;;;5094339;28;20048;-48
2023/08/04 10:52:43;;;;;;;2.25;0.50;;;18.90;99.90;;;;;;5095316;28;20040;-49
2023/08/04 10:55:13;;;;;;;2.15;0.50;;;18.90;99.90;;;;;;5095280;28;20044;-55
2023/08/04 10:57:41;;;;;;;1.02;0.50;;;19.00;99.90;;;;;;5095579;28;20047;-48
2023/08/04 11:00:09;;;;;;;2.65;0.50;;;19.20;99.90;;;;;;5095332;28;20044;-52
2023/08/04 11:02:35;;;;;;;1.90;0.40;;;19.30;99.90;;;;;;5094060;28;20086;-54
2023/08/04 11:05:04;;;;;;;0.80;0.40;;;19.50;99.90;;;;;;5094937;28;20130;-53
2023/08/04 11:07:29;;;;;;;2.13;0.73;;;19.70;99.90;;;;;;5093860;28;20369;-50
2023/08/04 11:09:55;;;;;;;1.38;0.40;;;19.70;99.90;;;;;;5095006;28;20097;-51
2023/08/04 11:12:21;;;;;;;0.80;0.35;;;19.80;99.90;;;;;;5094769;28;20044;-52
2023/08/04 11:14:51;;;;;;;1.58;0.40;;;19.90;99.90;;;;;;5095072;28;20084;-51
2023/08/04 11:17:20;;;;;;;2.05;0.45;;;20.00;99.90;;;;;;5094707;28;20120;-53
2023/08/04 11:19:47;;;;;;;3.05;0.82;;;20.10;99.90;;;;;;5095311;28;20586;-53
2023/08/04 11:22:18;;;;;;;1.88;0.60;;;20.00;99.90;;;;;;5094960;28;20063;-50
2023/08/04 11:24:44;;;;;;;1.77;0.50;;;20.00;99.90;;;;;;5094743;28;20040;-54
2023/08/04 11:27:13;;;;;;;1.15;0.40;;;20.10;99.90;;;;;;5094820;28;20046;-53
2023/08/04 11:29:39;;;;;;;2.45;0.50;;;20.10;99.90;;;;;;5094537;28;20055;-52
2023/08/04 11:32:16;;;;;;;2.95;0.55;;;20.00;99.90;;;;;;5094343;28;20040;-54
2023/08/04 11:34:42;;;;;;;2.22;0.50;;;19.90;99.90;;;;;;5094585;28;20044;-52
2023/08/04 11:37:08;;;;;;;4.43;1.02;;;19.90;99.90;;;;;;5094534;28;20048;-53
2023/08/04 11:39:35;;;;;;;3.08;0.40;;;19.80;99.90;;;;;;5094516;28;20051;-48
2023/08/04 11:42:02;;;;;;;1.42;0.40;;;19.90;99.90;;;;;;5093519;28;20055;-50
2023/08/04 11:44:28;;;;;;;1.70;0.50;;;20.00;99.90;;;;;;5094134;28;20149;-51
2023/08/04 11:46:54;;;;;;;2.40;0.68;;;20.10;99.90;;;;;;5094383;28;20051;-53
2023/08/04 11:49:20;;;;;;;2.22;0.60;;;20.20;99.90;;;;;;5094835;28;20123;-52
2023/08/04 11:51:46;;;;;;;;;;;20.20;99.90;;;;;;5094604;28;20048;-54
2023/08/04 11:54:20;;;;;;;1.95;0.70;;;20.20;99.90;;;;;;5094182;28;20278;-52
2023/08/04 11:56:45;;;;;;;1.67;0.57;;;20.40;99.90;;;;;;5094232;28;20389;-53
2023/08/04 11:59:12;;;;;;;2.78;0.60;;;20.40;99.90;;;;;;5093911;28;20052;-54
2023/08/04 12:01:38;;;;;;;1.15;0.50;;;20.50;99.90;;;;;;5094112;28;20056;-52
2023/08/04 12:04:19;;;;;;;2.55;0.70;;;20.40;99.90;;;;;;5093006;28;20051;-55
2023/08/04 12:06:45;;;;;;;2.20;0.80;;;20.30;99.90;;;;;;5094373;28;20097;-51
2023/08/04 12:09:11;;;;;;;3.60;0.77;;;20.10;99.90;;;;;;5093952;28;20372;-54
2023/08/04 12:11:47;;;;;;;1.85;0.70;;;20.10;99.90;;;;;;5093718;28;20040;-55
2023/08/04 12:14:13;;;;;;;2.97;1.13;;;19.90;99.90;;;;;;5092814;28;20052;-53
2023/08/04 12:16:59;;;;;;;4.30;1.10;;;19.90;99.90;;;;;;5093973;28;20036;-52
2023/08/04 12:19:26;;;;;;;1.60;0.60;;;19.80;99.90;;;;;;5093936;28;20510;-53
2023/08/04 12:21:57;;;;;;;2.47;0.65;;;19.70;99.90;;;;;;5093929;28;20096;-50
2023/08/04 12:24:22;;;;;;;2.63;0.50;;;19.70;99.90;;;;;;5093635;28;20113;-52
2023/08/04 12:26:48;;;;;;;1.77;0.43;;;19.70;99.90;;;;;;5093818;28;20047;-53
2023/08/04 12:29:14;;;;;;;1.73;0.70;;;19.70;99.90;;;;;;5075162;28;20048;-55
2023/08/04 12:31:40;;;;;;;2.33;0.80;;;19.70;99.90;;;;;;5093791;28;20047;-53
2023/08/04 12:34:07;;;;;;;1.38;0.52;;;19.70;99.90;;;;;;5093724;28;20044;-54
2023/08/04 12:36:34;;;;;;;1.38;0.50;;;19.80;99.90;;;;;;5093440;28;20483;-48
2023/08/04 12:39:00;;;;;;;2.08;0.50;;;19.80;99.90;;;;;;5093443;28;20044;-55
2023/08/04 12:41:25;;;;;;;3.35;0.60;;;19.90;99.90;;;;;;5093736;28;20043;-53
2023/08/04 12:43:51;;;;;;;1.92;0.82;;;20.00;99.90;;;;;;5093731;28;20436;-53
2023/08/04 12:46:17;;;;;;;4.07;0.50;;;20.00;99.90;;;;;;5093847;28;20040;-54